createdAt,value
2022-12-11T00:01:19.807Z,5.30
2022-12-11T00:03:48.319Z,4.60
2022-12-11T00:06:20.440Z,5.70
2022-12-11T00:08:52.139Z,6.40
2022-12-11T00:11:21.860Z,6.90
2022-12-11T00:13:49.900Z,6.50
2022-12-11T00:16:20.388Z,7.70
2022-12-11T00:18:51.913Z,7.40
2022-12-11T00:21:20.198Z,7.50
2022-12-11T00:23:48.424Z,6.70
2022-12-11T00:26:16.909Z,6.70
2022-12-11T00:28:46.087Z,7.20
2022-12-11T00:31:17.725Z,7.90
2022-12-11T00:33:49.165Z,7.10
2022-12-11T00:36:23.334Z,7.90
2022-12-11T00:38:51.807Z,7.20
2022-12-11T00:41:20.799Z,8.20
2022-12-11T00:43:48.926Z,8.40
2022-12-11T00:46:17.540Z,7.40
2022-12-11T00:48:46.424Z,7.50
2022-12-11T00:51:14.460Z,7.60
2022-12-11T00:53:43.793Z,7.10
2022-12-11T00:56:15.114Z,7.60
2022-12-11T00:58:43.360Z,7.50
2022-12-11T01:01:18.441Z,7.00
2022-12-11T01:03:47.444Z,7.20
2022-12-11T01:06:17.841Z,6.70
2022-12-11T01:08:47.087Z,6.50
2022-12-11T01:11:16.827Z,7.70
2022-12-11T01:13:45.003Z,7.70
2022-12-11T01:16:16.013Z,7.10
2022-12-11T01:18:44.990Z,7.30
2022-12-11T01:21:13.644Z,7.40
2022-12-11T01:23:41.852Z,7.20
2022-12-11T01:26:13.881Z,8.00
2022-12-11T01:28:42.800Z,7.30
2022-12-11T01:31:12.817Z,7.10
2022-12-11T01:33:41.824Z,7.10
2022-12-11T01:36:14.165Z,6.90
2022-12-11T01:38:42.681Z,6.50
2022-12-11T01:41:10.945Z,6.50
2022-12-11T01:44:00.841Z,7.50
2022-12-11T01:46:30.894Z,7.00
2022-12-11T01:49:01.018Z,6.70
2022-12-11T01:51:31.409Z,6.10
2022-12-11T01:54:06.776Z,6.30
2022-12-11T01:56:38.130Z,6.70
2022-12-11T01:59:09.687Z,6.10
2022-12-11T02:01:43.819Z,5.50
2022-12-11T02:04:16.468Z,5.30
2022-12-11T02:06:48.755Z,6.00
2022-12-11T02:09:27.391Z,7.60
2022-12-11T02:12:07.730Z,6.80
2022-12-11T02:14:50.911Z,6.40
2022-12-11T02:17:54.392Z,6.40
2022-12-11T02:20:39.737Z,6.70
2022-12-11T02:23:26.674Z,7.20
2022-12-11T02:26:19.006Z,5.70
2022-12-11T02:28:53.479Z,5.70
2022-12-11T02:31:46.982Z,5.20
2022-12-11T02:34:33.129Z,5.60
2022-12-11T02:37:07.507Z,5.60
2022-12-11T02:39:39.180Z,5.20
2022-12-11T02:42:09.825Z,5.60
2022-12-11T02:44:40.428Z,5.50
2022-12-11T02:47:13.633Z,5.20
2022-12-11T02:49:45.279Z,5.50
2022-12-11T02:52:16.442Z,5.00
2022-12-11T02:54:45.509Z,5.10
2022-12-11T02:57:43.850Z,5.30
2022-12-11T03:00:13.049Z,5.90
2022-12-11T03:02:41.597Z,5.80
2022-12-11T03:05:12.198Z,5.40
2022-12-11T03:10:14.865Z,4.60
2022-12-11T03:12:50.488Z,6.10
2022-12-11T03:15:30.377Z,5.50
2022-12-11T03:18:12.325Z,5.30
2022-12-11T03:20:47.808Z,5.40
2022-12-11T03:23:16.072Z,5.30
2022-12-11T03:26:10.556Z,5.50
2022-12-11T03:29:00.187Z,5.80
2022-12-11T03:31:39.511Z,5.10
2022-12-11T03:34:34.956Z,6.00
2022-12-11T03:37:05.419Z,5.50
2022-12-11T03:39:38.647Z,5.60
2022-12-11T03:42:10.390Z,5.80
2022-12-11T03:44:39.567Z,5.10
2022-12-11T03:47:09.066Z,5.20
2022-12-11T03:49:42.165Z,5.20
2022-12-11T03:52:12.989Z,4.90
2022-12-11T03:54:45.390Z,5.40
2022-12-11T03:57:17.184Z,5.60
2022-12-11T03:59:45.511Z,6.50
2022-12-11T04:02:13.852Z,5.90
2022-12-11T04:04:42.863Z,5.30
2022-12-11T04:07:11.005Z,4.90
2022-12-11T04:09:39.037Z,4.60
2022-12-11T04:12:07.117Z,5.50
2022-12-11T04:14:53.614Z,5.20
2022-12-11T04:17:40.692Z,5.20
2022-12-11T04:20:29.838Z,4.50
2022-12-11T04:23:16.460Z,5.30
2022-12-11T04:25:44.531Z,4.70
2022-12-11T04:28:13.054Z,5.60
2022-12-11T04:30:41.246Z,5.90
2022-12-11T04:33:09.525Z,5.50
2022-12-11T04:35:37.727Z,5.80
2022-12-11T04:38:06.448Z,5.20
2022-12-11T04:40:34.520Z,5.60
2022-12-11T04:43:04.715Z,4.60
2022-12-11T04:45:33.081Z,5.10
2022-12-11T04:48:01.491Z,4.90
2022-12-11T04:50:29.714Z,4.90
2022-12-11T04:52:57.765Z,4.60
2022-12-11T04:55:25.951Z,4.50
2022-12-11T04:57:54.065Z,4.70
2022-12-11T05:00:22.797Z,5.10
2022-12-11T05:02:51.066Z,5.10
2022-12-11T05:05:19.929Z,4.50
2022-12-11T05:07:48.089Z,4.30
2022-12-11T05:10:16.276Z,4.00
2022-12-11T05:12:45.051Z,4.10
2022-12-11T05:15:13.297Z,4.00
2022-12-11T05:17:41.580Z,3.70
2022-12-11T05:20:10.707Z,4.40
2022-12-11T05:22:39.555Z,4.50
2022-12-11T05:25:08.066Z,5.10
2022-12-11T05:27:36.543Z,4.60
2022-12-11T05:30:05.719Z,4.70
2022-12-11T05:32:33.925Z,4.60
2022-12-11T05:35:04.626Z,4.80
2022-12-11T05:37:34.801Z,5.40
2022-12-11T05:40:08.592Z,5.40
2022-12-11T05:42:36.793Z,6.50
2022-12-11T05:45:05.483Z,5.60
2022-12-11T05:47:33.679Z,5.00
2022-12-11T05:50:02.061Z,4.40
2022-12-11T05:52:32.195Z,4.10
2022-12-11T05:55:00.255Z,4.60
2022-12-11T05:57:28.348Z,3.80
2022-12-11T05:59:56.449Z,3.80
2022-12-11T06:02:24.701Z,4.30
2022-12-11T06:04:52.898Z,4.80
2022-12-11T06:07:20.961Z,5.30
2022-12-11T06:09:49.359Z,5.00
2022-12-11T06:12:17.480Z,4.80
2022-12-11T06:14:46.073Z,4.90
2022-12-11T06:17:15.208Z,4.50
2022-12-11T06:19:43.432Z,4.80
2022-12-11T06:22:11.552Z,3.80
2022-12-11T06:24:39.845Z,4.30
2022-12-11T06:27:08.454Z,4.50
2022-12-11T06:29:36.483Z,3.60
2022-12-11T06:32:05.342Z,4.10
2022-12-11T06:34:36.953Z,3.50
2022-12-11T06:37:05.040Z,3.90
2022-12-11T06:39:33.050Z,4.20
2022-12-11T06:42:00.973Z,3.80
2022-12-11T06:44:29.390Z,4.10
2022-12-11T06:46:57.402Z,3.10
2022-12-11T06:49:26.659Z,2.90
2022-12-11T06:51:54.683Z,2.60
2022-12-11T06:54:27.539Z,2.20
2022-12-11T06:56:55.547Z,1.90
2022-12-11T06:59:23.636Z,1.30
2022-12-11T07:01:52.372Z,0.80
2022-12-11T07:04:20.683Z,0.70
2022-12-11T07:06:49.499Z,0.80
2022-12-11T07:09:17.947Z,0.90
2022-12-11T07:11:45.977Z,0.70
2022-12-11T07:14:14.096Z,0.50
2022-12-11T07:16:42.302Z,0.90
2022-12-11T07:19:11.115Z,1.00
2022-12-11T07:21:39.144Z,0.70
2022-12-11T07:24:07.897Z,0.80
2022-12-11T07:26:35.918Z,0.70
2022-12-11T07:29:03.895Z,1.00
2022-12-11T07:31:31.962Z,0.50
2022-12-11T07:34:02.812Z,1.20
2022-12-11T07:36:32.178Z,1.20
2022-12-11T07:39:03.809Z,0.70
2022-12-11T07:41:31.987Z,0.70
2022-12-11T07:44:01.707Z,1.30
2022-12-11T07:46:32.669Z,0.80
2022-12-11T07:49:01.658Z,0.30
2022-12-11T07:51:31.696Z,0.70
2022-12-11T07:54:07.161Z,0.70
2022-12-11T07:56:36.464Z,1.30
2022-12-11T07:59:14.432Z,0.70
2022-12-11T08:01:43.274Z,0.40
2022-12-11T08:04:12.801Z,0.70
2022-12-11T08:06:41.886Z,0.30
2022-12-11T08:09:20.392Z,0.70
2022-12-11T08:11:50.711Z,0.70
2022-12-11T08:14:19.855Z,0.50
2022-12-11T08:16:48.045Z,0.30
2022-12-11T08:19:16.614Z,0.40
2022-12-11T08:21:45.095Z,0.60
2022-12-11T08:24:13.067Z,0.70
2022-12-11T08:26:41.637Z,0.60
2022-12-11T08:29:10.241Z,0.70
2022-12-11T08:31:40.205Z,0.80
2022-12-11T08:34:08.206Z,0.50
2022-12-11T08:36:36.233Z,0.90
2022-12-11T08:39:04.387Z,0.60
2022-12-11T08:41:32.421Z,1.00
2022-12-11T08:44:01.880Z,0.90
2022-12-11T08:46:32.123Z,0.70
2022-12-11T08:49:00.572Z,0.80
2022-12-11T08:51:30.344Z,0.80
2022-12-11T08:54:01.165Z,0.70
2022-12-11T08:56:29.927Z,0.70
2022-12-11T08:59:01.132Z,1.00
2022-12-11T09:01:29.878Z,1.00
2022-12-11T09:03:58.466Z,1.30
2022-12-11T09:06:29.920Z,0.70
2022-12-11T09:09:00.573Z,0.40
2022-12-11T09:11:31.767Z,0.50
2022-12-11T09:14:06.960Z,0.80
2022-12-11T09:16:40.984Z,0.50
2022-12-11T09:19:14.174Z,0.60
2022-12-11T09:21:43.779Z,0.40
2022-12-11T09:24:13.263Z,0.60
2022-12-11T09:26:42.192Z,0.80
2022-12-11T09:29:11.626Z,0.70
2022-12-11T09:31:40.428Z,0.70
2022-12-11T09:34:14.319Z,0.80
2022-12-11T09:36:44.375Z,0.50
2022-12-11T09:39:14.871Z,0.60
2022-12-11T09:44:12.481Z,0.60
2022-12-11T09:46:41.682Z,0.50
2022-12-11T09:49:22.297Z,0.80
2022-12-11T09:54:24.562Z,2.20
2022-12-11T09:57:10.653Z,2.10
2022-12-11T10:00:17.041Z,1.60
2022-12-11T10:02:48.046Z,1.30
2022-12-11T10:06:04.071Z,1.10
2022-12-11T10:08:51.305Z,1.50
2022-12-11T10:11:22.415Z,1.90
2022-12-11T10:14:18.317Z,1.20
2022-12-11T10:16:54.431Z,4.40
2022-12-11T10:19:27.890Z,3.50
2022-12-11T10:21:57.349Z,2.40
2022-12-11T10:25:07.473Z,2.40
2022-12-11T10:27:26.443Z,1.80
2022-12-11T10:30:16.026Z,1.60
2022-12-11T10:32:50.061Z,1.30
2022-12-11T10:35:27.262Z,1.30
2022-12-11T10:38:15.021Z,1.40
2022-12-11T10:40:56.617Z,1.20
2022-12-11T10:43:34.409Z,1.20
2022-12-11T10:46:03.603Z,2.40
2022-12-11T10:48:32.217Z,1.60
2022-12-11T10:51:04.372Z,1.30
2022-12-11T10:53:34.141Z,4.60
2022-12-11T10:56:02.787Z,2.40
2022-12-11T10:58:34.352Z,2.80
2022-12-11T11:01:14.327Z,2.20
2022-12-11T11:04:24.242Z,2.50
2022-12-11T11:07:12.573Z,1.40
2022-12-11T11:09:41.000Z,1.40
2022-12-11T11:12:23.479Z,1.40
2022-12-11T11:15:02.748Z,1.90
2022-12-11T11:17:35.128Z,3.50
2022-12-11T11:20:14.474Z,1.50
2022-12-11T11:22:47.546Z,1.30
2022-12-11T11:25:19.827Z,0.80
2022-12-11T11:27:56.481Z,0.90
2022-12-11T11:30:31.731Z,1.60
2022-12-11T11:33:14.144Z,1.10
2022-12-11T11:35:53.326Z,0.90
2022-12-11T11:38:25.397Z,1.40
2022-12-11T11:41:22.324Z,1.20
2022-12-11T11:43:55.268Z,0.50
2022-12-11T11:46:36.743Z,0.60
2022-12-11T11:49:14.056Z,0.80
2022-12-11T11:51:49.206Z,0.40
2022-12-11T11:54:23.309Z,1.60
2022-12-11T11:56:54.394Z,1.90
2022-12-11T11:59:36.180Z,1.10
2022-12-11T12:02:15.043Z,1.30
2022-12-11T12:04:44.212Z,2.30
2022-12-11T12:07:40.884Z,2.10
2022-12-11T12:10:27.638Z,1.50
2022-12-11T12:13:36.993Z,2.00
2022-12-11T12:16:02.902Z,1.70
2022-12-11T12:19:01.128Z,1.50
2022-12-11T12:21:39.057Z,1.70
2022-12-11T12:24:19.452Z,1.50
2022-12-11T12:27:17.606Z,1.70
2022-12-11T12:30:01.919Z,2.00
2022-12-11T12:33:03.242Z,1.50
2022-12-11T12:35:34.666Z,1.60
2022-12-11T12:38:23.763Z,1.70
2022-12-11T12:41:17.038Z,1.60
2022-12-11T12:44:12.628Z,1.50
2022-12-11T12:47:05.355Z,2.00
2022-12-11T12:49:41.062Z,2.30
2022-12-11T12:52:23.224Z,1.90
2022-12-11T12:55:14.962Z,1.90
2022-12-11T12:58:05.439Z,2.60
2022-12-11T13:00:42.769Z,3.20
2022-12-11T13:03:16.682Z,3.20
2022-12-11T13:05:56.771Z,2.10
2022-12-11T13:08:34.010Z,1.50
2022-12-11T13:11:12.185Z,1.20
2022-12-11T13:13:43.831Z,1.80
2022-12-11T13:16:18.036Z,1.70
2022-12-11T13:18:48.376Z,1.50
2022-12-11T13:21:28.718Z,2.10
2022-12-11T13:24:24.206Z,1.50
2022-12-11T13:26:53.053Z,1.10
2022-12-11T13:29:50.193Z,1.30
2022-12-11T13:32:18.281Z,1.20
2022-12-11T13:34:58.434Z,1.40
2022-12-11T13:37:34.810Z,1.50
2022-12-11T13:40:08.485Z,0.90
2022-12-11T13:42:44.923Z,1.40
2022-12-11T13:45:21.959Z,1.20
2022-12-11T13:47:50.563Z,1.10
2022-12-11T13:50:26.530Z,1.20
2022-12-11T13:52:56.739Z,1.60
2022-12-11T13:55:28.598Z,1.30
2022-12-11T13:57:58.051Z,1.00
2022-12-11T14:00:32.989Z,1.50
2022-12-11T14:03:07.550Z,1.40
2022-12-11T14:05:36.514Z,1.50
2022-12-11T14:08:10.476Z,1.20
2022-12-11T14:10:42.773Z,1.20
2022-12-11T14:13:23.604Z,1.20
2022-12-11T14:15:52.939Z,0.80
2022-12-11T14:18:24.136Z,1.70
2022-12-11T14:20:57.667Z,1.80
2022-12-11T14:23:31.868Z,2.40
2022-12-11T14:26:04.053Z,2.90
2022-12-11T14:28:42.015Z,2.70
2022-12-11T14:31:16.049Z,2.50
2022-12-11T14:33:49.039Z,2.60
2022-12-11T14:36:18.000Z,2.30
2022-12-11T14:39:17.117Z,2.00
2022-12-11T14:42:10.582Z,2.00
2022-12-11T14:44:50.431Z,2.20
2022-12-11T14:47:22.970Z,2.40
2022-12-11T14:50:10.426Z,2.10
2022-12-11T14:52:45.847Z,1.70
2022-12-11T14:55:17.603Z,1.90
2022-12-11T14:57:49.380Z,1.60
2022-12-11T15:00:37.605Z,1.60
2022-12-11T15:03:17.820Z,1.70
2022-12-11T15:05:57.180Z,2.10
2022-12-11T15:08:34.275Z,1.40
2022-12-11T15:11:11.479Z,1.70
2022-12-11T15:13:55.763Z,2.00
2022-12-11T15:16:26.876Z,2.20
2022-12-11T15:18:56.471Z,2.00
2022-12-11T15:21:33.272Z,2.40
2022-12-11T15:24:04.745Z,2.10
2022-12-11T15:26:38.858Z,1.90
2022-12-11T15:29:25.782Z,2.20
2022-12-11T15:34:35.542Z,1.60
2022-12-11T15:37:05.813Z,2.00
2022-12-11T15:39:35.136Z,1.90
2022-12-11T15:42:04.977Z,1.80
2022-12-11T15:44:33.133Z,1.70
2022-12-11T15:47:11.954Z,2.10
2022-12-11T15:49:39.898Z,2.00
2022-12-11T15:52:08.815Z,1.80
2022-12-11T15:54:37.782Z,1.80
2022-12-11T15:57:11.171Z,1.60
2022-12-11T15:59:39.311Z,1.90
2022-12-11T16:02:13.888Z,1.80
2022-12-11T16:04:42.125Z,1.70
2022-12-11T16:07:18.557Z,2.00
2022-12-11T16:09:49.736Z,1.90
2022-12-11T16:12:17.934Z,2.10
2022-12-11T16:14:46.519Z,2.50
2022-12-11T16:17:15.866Z,3.70
2022-12-11T16:19:44.782Z,2.30
2022-12-11T16:22:14.155Z,1.70
2022-12-11T16:24:42.736Z,2.70
2022-12-11T16:27:12.445Z,1.90
2022-12-11T16:29:41.907Z,2.20
2022-12-11T16:32:13.184Z,1.70
2022-12-11T16:34:49.784Z,1.70
2022-12-11T16:37:17.954Z,1.80
2022-12-11T16:39:51.779Z,1.90
2022-12-11T16:44:48.524Z,1.90
2022-12-11T16:47:16.701Z,2.30
2022-12-11T16:49:44.825Z,1.80
2022-12-11T16:52:16.357Z,2.30
2022-12-11T16:54:47.003Z,1.60
2022-12-11T16:57:15.126Z,1.80
2022-12-11T16:59:43.540Z,2.10
2022-12-11T17:02:11.959Z,1.90
2022-12-11T17:04:40.317Z,2.50
2022-12-11T17:07:08.591Z,2.70
2022-12-11T17:09:36.812Z,2.60
2022-12-11T17:12:05.724Z,2.20
2022-12-11T17:14:33.887Z,2.70
2022-12-11T17:17:02.248Z,3.00
2022-12-11T17:19:31.006Z,3.10
2022-12-11T17:21:59.144Z,2.50
2022-12-11T17:24:27.273Z,2.70
2022-12-11T17:26:55.938Z,2.40
2022-12-11T17:29:24.826Z,2.10
2022-12-11T17:31:52.967Z,2.30
2022-12-11T17:34:21.010Z,2.60
2022-12-11T17:36:49.210Z,3.10
2022-12-11T17:39:17.287Z,2.10
2022-12-11T17:41:45.394Z,2.30
2022-12-11T17:44:13.460Z,2.70
2022-12-11T17:46:41.563Z,2.80
2022-12-11T17:49:13.240Z,2.70
2022-12-11T17:51:41.441Z,2.60
2022-12-11T17:54:11.241Z,2.90
2022-12-11T17:56:39.419Z,2.60
2022-12-11T17:59:07.467Z,2.90
2022-12-11T18:01:35.804Z,3.00
2022-12-11T18:04:04.105Z,2.30
2022-12-11T18:06:32.308Z,2.70
2022-12-11T18:09:05.927Z,3.40
2022-12-11T18:11:34.958Z,3.00
2022-12-11T18:14:04.250Z,3.30
2022-12-11T18:16:37.792Z,2.60
2022-12-11T18:19:25.546Z,3.00
2022-12-11T18:21:54.717Z,2.90
2022-12-11T18:24:25.382Z,2.80
2022-12-11T18:29:47.883Z,2.80
2022-12-11T18:32:16.090Z,3.10
2022-12-11T18:34:48.289Z,2.90
2022-12-11T18:37:29.574Z,3.40
2022-12-11T18:40:05.387Z,2.90
2022-12-11T18:42:34.978Z,3.80
2022-12-11T18:45:03.876Z,3.10
2022-12-11T18:47:32.974Z,2.70
2022-12-11T18:50:07.343Z,2.90
2022-12-11T18:52:39.796Z,3.80
2022-12-11T18:55:13.196Z,2.90
2022-12-11T18:57:44.775Z,2.90
2022-12-11T19:00:15.250Z,2.80
2022-12-11T19:02:43.779Z,3.50
2022-12-11T19:05:18.657Z,3.00
2022-12-11T19:07:49.556Z,2.90
2022-12-11T19:10:18.075Z,3.20
2022-12-11T19:12:48.666Z,3.70
2022-12-11T19:15:22.126Z,3.00
2022-12-11T19:17:51.922Z,3.10
2022-12-11T19:20:48.020Z,4.70
2022-12-11T19:23:11.191Z,4.90
2022-12-11T19:25:45.223Z,4.40
2022-12-11T19:28:14.986Z,4.80
2022-12-11T19:30:49.113Z,5.60
2022-12-11T19:33:22.757Z,5.80
2022-12-11T19:36:12.602Z,5.90
2022-12-11T19:39:12.829Z,4.40
2022-12-11T19:41:56.686Z,4.90
2022-12-11T19:47:19.430Z,4.00
2022-12-11T19:52:28.723Z,4.30
2022-12-11T19:55:01.711Z,3.70
2022-12-11T19:57:32.959Z,3.70
2022-12-11T20:00:02.266Z,3.90
2022-12-11T20:02:43.140Z,4.00
2022-12-11T20:05:11.713Z,4.10
2022-12-11T20:07:46.975Z,4.00
2022-12-11T20:10:15.754Z,4.60
2022-12-11T20:12:43.931Z,4.20
2022-12-11T20:15:12.435Z,3.80
2022-12-11T20:17:44.626Z,3.50
2022-12-11T20:20:12.957Z,4.40
2022-12-11T20:22:41.066Z,3.90
2022-12-11T20:25:10.950Z,3.80
2022-12-11T20:27:39.648Z,3.40
2022-12-11T20:30:08.241Z,4.50
2022-12-11T20:32:39.064Z,5.10
2022-12-11T20:35:26.060Z,3.90
2022-12-11T20:38:12.658Z,5.00
2022-12-11T20:43:28.497Z,5.00
2022-12-11T20:46:01.027Z,5.00
2022-12-11T20:51:14.521Z,4.00
2022-12-11T20:53:43.300Z,4.30
2022-12-11T20:56:20.085Z,4.00
2022-12-11T20:59:09.298Z,5.10
2022-12-11T21:01:38.068Z,4.90
2022-12-11T21:04:06.452Z,5.00
2022-12-11T21:06:57.578Z,5.10
2022-12-11T21:09:42.287Z,5.50
2022-12-11T21:12:10.886Z,5.40
2022-12-11T21:14:40.969Z,6.40
2022-12-11T21:20:08.135Z,4.80
2022-12-11T21:22:38.789Z,4.60
2022-12-11T21:25:07.721Z,4.20
2022-12-11T21:27:36.042Z,4.40
2022-12-11T21:30:21.590Z,5.40
2022-12-11T21:32:56.431Z,5.50
2022-12-11T21:35:27.223Z,5.40
2022-12-11T21:37:55.611Z,5.10
2022-12-11T21:40:24.036Z,5.90
2022-12-11T21:42:52.307Z,5.20
2022-12-11T21:48:09.020Z,5.30
2022-12-11T21:50:37.503Z,5.50
2022-12-11T21:53:08.074Z,5.50
2022-12-11T21:55:42.637Z,5.80
2022-12-11T21:58:33.456Z,6.20
2022-12-11T22:01:03.433Z,5.60
2022-12-11T22:03:32.756Z,5.30
2022-12-11T22:06:21.380Z,5.40
2022-12-11T22:08:50.020Z,5.40
2022-12-11T22:11:43.178Z,4.30
2022-12-11T22:14:27.012Z,4.80
2022-12-11T22:17:16.370Z,5.40
2022-12-11T22:19:45.640Z,5.10
2022-12-11T22:22:20.387Z,4.80
2022-12-11T22:24:50.952Z,5.40
2022-12-11T22:27:23.696Z,4.30
2022-12-11T22:29:54.601Z,5.00
2022-12-11T22:34:50.970Z,5.90
2022-12-11T22:37:19.277Z,4.70
2022-12-11T22:39:47.444Z,4.90
2022-12-11T22:42:15.875Z,5.70
2022-12-11T22:44:44.376Z,5.50
2022-12-11T22:47:12.795Z,4.90
2022-12-11T22:49:45.484Z,5.20
2022-12-11T22:52:20.269Z,5.30
2022-12-11T22:54:48.519Z,5.10
2022-12-11T22:59:58.666Z,4.50
2022-12-11T23:02:26.828Z,5.70
2022-12-11T23:04:55.219Z,5.00
2022-12-11T23:07:37.127Z,6.30
2022-12-11T23:10:08.821Z,4.10
2022-12-11T23:15:20.221Z,4.30
2022-12-11T23:17:48.298Z,4.80
2022-12-11T23:20:16.828Z,5.10
2022-12-11T23:22:45.826Z,4.50
2022-12-11T23:25:14.507Z,4.70
2022-12-11T23:27:45.934Z,5.10
2022-12-11T23:30:28.056Z,4.30
2022-12-11T23:32:56.327Z,5.10
2022-12-11T23:35:38.332Z,5.10
2022-12-11T23:38:06.561Z,5.50
2022-12-11T23:40:35.268Z,5.00
2022-12-11T23:43:03.327Z,5.00
2022-12-11T23:45:31.583Z,4.70
2022-12-11T23:47:59.888Z,4.60
2022-12-11T23:50:28.071Z,5.50
2022-12-11T23:52:56.357Z,4.70
2022-12-11T23:55:25.455Z,4.60
2022-12-11T23:57:54.088Z,5.00
